Time;durP1;ratioP1;P1;durP2;ratioP2;P2;SDS_P1;SDS_P2;PMS_P1;PMS_P2;Temp;Humidity;BMP_temperature;BMP_pressure;BME280_temperature;BME280_humidity;BME280_pressure;Samples;Min_cycle;Max_cycle;Signal;HPM_P1;HPM_P2
2023/10/28 00:00:43;;;;;;;3.17;1.33;;;8.30;99.90;;;;;;5063250;28;20523;-60
2023/10/28 00:03:09;;;;;;;2.03;1.30;;;8.30;99.90;;;;;;5059868;28;20520;-60
2023/10/28 00:05:34;;;;;;;1.00;1.00;;;8.30;99.90;;;;;;5056371;28;20174;-60
2023/10/28 00:08:01;;;;;;;1.10;1.00;;;8.30;99.90;;;;;;5063460;28;20421;-60
2023/10/28 00:10:28;;;;;;;2.80;1.20;;;8.40;99.90;;;;;;5060051;28;20225;-60
2023/10/28 00:12:54;;;;;;;8.77;1.50;;;8.40;99.90;;;;;;5066375;28;20513;-60
2023/10/28 00:15:20;;;;;;;2.50;1.60;;;8.40;99.90;;;;;;5061994;28;20416;-60
2023/10/28 00:17:49;;;;;;;5.30;1.63;;;8.40;99.90;;;;;;5061804;28;20187;-59
2023/10/28 00:20:17;;;;;;;2.30;1.50;;;8.40;99.90;;;;;;5054522;28;20174;-59
2023/10/28 00:22:47;;;;;;;3.10;1.50;;;8.40;99.90;;;;;;5065992;28;20419;-61
2023/10/28 00:25:14;;;;;;;2.03;1.30;;;8.40;99.90;;;;;;5064457;28;20432;-60
2023/10/28 00:27:41;;;;;;;1.63;1.30;;;8.40;99.90;;;;;;5059262;28;20436;-60
2023/10/28 00:30:10;;;;;;;3.03;1.37;;;8.30;99.90;;;;;;5056175;28;21166;-59
2023/10/28 00:32:37;;;;;;;4.30;1.20;;;8.30;99.90;;;;;;5068243;28;20784;-60
2023/10/28 00:35:04;;;;;;;5.73;1.40;;;8.30;99.90;;;;;;5067517;28;20420;-59
2023/10/28 00:37:29;;;;;;;4.90;1.40;;;8.30;99.90;;;;;;5068437;28;20460;-61
2023/10/28 00:39:56;;;;;;;2.20;1.30;;;8.30;99.90;;;;;;5063187;28;20523;-60
2023/10/28 00:42:21;;;;;;;1.93;1.33;;;8.20;99.90;;;;;;5065972;28;20195;-59
2023/10/28 00:44:47;;;;;;;6.33;1.73;;;8.20;99.90;;;;;;5069750;28;20416;-59
2023/10/28 00:47:13;;;;;;;2.83;1.63;;;8.20;99.90;;;;;;5067177;28;20523;-60
2023/10/28 00:49:40;;;;;;;4.97;1.57;;;8.20;99.90;;;;;;5069631;28;20220;-59
2023/10/28 00:52:06;;;;;;;2.30;1.40;;;8.20;99.90;;;;;;5066975;28;20526;-58
2023/10/28 00:54:32;;;;;;;7.23;1.80;;;8.20;99.90;;;;;;5067223;28;20426;-60
2023/10/28 00:56:58;;;;;;;4.03;1.20;;;8.20;99.90;;;;;;5067914;28;20210;-59
2023/10/28 00:59:27;;;;;;;6.37;1.90;;;8.20;99.90;;;;;;5069347;28;20492;-60
2023/10/28 01:01:53;;;;;;;4.60;1.87;;;8.20;99.90;;;;;;5064200;28;20540;-59
2023/10/28 01:04:19;;;;;;;4.07;1.50;;;8.20;99.90;;;;;;5065242;28;20453;-59
2023/10/28 01:06:45;;;;;;;5.10;1.50;;;8.20;99.90;;;;;;5066122;28;20432;-59
2023/10/28 01:09:11;;;;;;;7.03;1.77;;;8.20;99.90;;;;;;5067593;28;20175;-59
2023/10/28 01:11:39;;;;;;;4.30;1.83;;;8.20;99.90;;;;;;5064735;28;20537;-59
2023/10/28 01:14:05;;;;;;;5.97;1.80;;;8.20;99.90;;;;;;5062664;28;20175;-59
2023/10/28 01:16:32;;;;;;;5.43;1.40;;;8.20;99.90;;;;;;5065641;28;20791;-58
2023/10/28 01:18:57;;;;;;;4.70;1.80;;;8.30;99.90;;;;;;5065564;28;20871;-59
2023/10/28 01:21:23;;;;;;;3.47;1.90;;;8.30;99.90;;;;;;5064352;28;20489;-59
2023/10/28 01:23:49;;;;;;;4.03;2.10;;;8.30;99.90;;;;;;5068179;28;20175;-59
2023/10/28 01:26:15;;;;;;;2.33;1.67;;;8.30;99.90;;;;;;5063568;28;21687;-59
2023/10/28 01:28:41;;;;;;;9.70;1.57;;;8.30;99.90;;;;;;5067816;28;20981;-59
2023/10/28 01:31:08;;;;;;;9.13;1.40;;;8.30;99.90;;;;;;5062857;28;20717;-60
2023/10/28 01:33:33;;;;;;;2.53;1.70;;;8.30;99.90;;;;;;5066192;28;20677;-58
2023/10/28 01:35:59;;;;;;;3.30;1.70;;;8.30;99.90;;;;;;5064922;28;20441;-59
2023/10/28 01:38:25;;;;;;;3.30;1.90;;;8.30;99.90;;;;;;5060063;28;20273;-62
2023/10/28 01:40:51;;;;;;;5.30;1.80;;;8.30;99.90;;;;;;5063352;28;20194;-59
2023/10/28 01:43:18;;;;;;;1.60;1.50;;;8.30;99.90;;;;;;5063157;28;20436;-59
2023/10/28 01:45:44;;;;;;;2.40;1.60;;;8.30;99.90;;;;;;5066378;28;20705;-59
2023/10/28 01:48:10;;;;;;;6.70;1.47;;;8.20;99.90;;;;;;5062457;28;20459;-60
2023/10/28 01:50:36;;;;;;;6.07;2.10;;;8.20;99.90;;;;;;5059735;28;20198;-59
2023/10/28 01:53:02;;;;;;;5.30;1.70;;;8.30;99.90;;;;;;5058393;28;20464;-59
2023/10/28 01:55:28;;;;;;;5.20;1.67;;;8.30;99.90;;;;;;5061799;28;20265;-60
2023/10/28 01:57:54;;;;;;;6.03;1.63;;;8.30;99.90;;;;;;5065907;28;20499;-60
2023/10/28 02:00:19;;;;;;;1.70;1.60;;;8.30;99.90;;;;;;5061468;28;20253;-59
2023/10/28 02:02:45;;;;;;;2.83;1.23;;;8.30;99.90;;;;;;5066304;28;20833;-59
2023/10/28 02:05:12;;;;;;;2.70;1.23;;;8.30;99.90;;;;;;5060995;28;20167;-59
2023/10/28 02:07:38;;;;;;;13.67;2.00;;;8.30;99.90;;;;;;5061089;28;20209;-59
2023/10/28 02:10:05;;;;;;;4.37;1.60;;;8.30;99.90;;;;;;5061588;28;20429;-59
2023/10/28 02:12:34;;;;;;;6.20;1.60;;;8.30;99.90;;;;;;5063861;28;20202;-59
2023/10/28 02:15:03;;;;;;;9.30;1.70;;;8.40;99.90;;;;;;5057497;28;20472;-59
2023/10/28 02:17:29;;;;;;;2.10;1.20;;;8.30;99.90;;;;;;5063541;28;20426;-59
2023/10/28 02:19:56;;;;;;;4.70;1.50;;;8.40;99.90;;;;;;5065298;28;20431;-60
2023/10/28 02:22:22;;;;;;;5.30;1.60;;;8.30;99.90;;;;;;5066864;28;20298;-59
2023/10/28 02:24:48;;;;;;;7.77;1.53;;;8.40;99.90;;;;;;5068488;28;20463;-60
2023/10/28 02:27:13;;;;;;;7.13;1.67;;;8.30;99.90;;;;;;5063734;28;20959;-59
2023/10/28 02:29:39;;;;;;;6.30;1.50;;;8.30;99.90;;;;;;5066441;28;20189;-59
2023/10/28 02:32:06;;;;;;;4.10;1.40;;;8.30;99.90;;;;;;5065577;28;20634;-60
2023/10/28 02:34:32;;;;;;;3.83;1.27;;;8.30;99.90;;;;;;5066581;28;20202;-59
2023/10/28 02:36:57;;;;;;;4.10;1.50;;;8.30;99.90;;;;;;5063424;28;20432;-58
2023/10/28 02:39:23;;;;;;;7.47;1.43;;;8.40;99.90;;;;;;5064738;28;20186;-60
2023/10/28 02:41:48;;;;;;;7.97;1.60;;;8.40;99.90;;;;;;5064495;28;20255;-59
2023/10/28 02:44:14;;;;;;;3.20;1.00;;;8.40;99.90;;;;;;5066259;28;20209;-59
2023/10/28 02:46:39;;;;;;;2.93;1.70;;;8.40;99.90;;;;;;5062629;28;20652;-59
2023/10/28 02:49:05;;;;;;;1.23;1.13;;;8.40;99.90;;;;;;5063380;28;20214;-60
2023/10/28 02:51:31;;;;;;;6.17;1.57;;;8.40;99.90;;;;;;5063735;28;20198;-58
2023/10/28 02:53:58;;;;;;;1.47;1.20;;;8.40;99.90;;;;;;5065003;28;20649;-60
2023/10/28 02:56:24;;;;;;;4.73;1.40;;;8.40;99.90;;;;;;5067569;28;20439;-59
2023/10/28 02:58:50;;;;;;;1.90;1.07;;;8.40;99.90;;;;;;5055383;28;20429;-59
2023/10/28 03:01:16;;;;;;;6.00;1.57;;;8.40;99.90;;;;;;5057537;28;20198;-60
2023/10/28 03:03:43;;;;;;;1.50;1.23;;;8.40;99.90;;;;;;5064319;28;20182;-60
2023/10/28 03:06:08;;;;;;;3.23;1.50;;;8.40;99.90;;;;;;5058451;28;20214;-59
2023/10/28 03:08:34;;;;;;;8.00;1.73;;;8.50;99.90;;;;;;5065942;28;20935;-59
2023/10/28 03:11:00;;;;;;;5.43;1.30;;;8.40;99.90;;;;;;5061581;28;20230;-59
2023/10/28 03:13:26;;;;;;;3.13;2.00;;;8.50;99.90;;;;;;5063308;28;20211;-60
2023/10/28 03:15:51;;;;;;;6.20;1.40;;;8.50;99.90;;;;;;5065158;28;20428;-59
2023/10/28 03:18:17;;;;;;;4.37;1.47;;;8.50;99.90;;;;;;5061410;28;20178;-59
2023/10/28 03:20:42;;;;;;;2.00;1.20;;;8.50;99.90;;;;;;5063306;28;20198;-59
2023/10/28 03:23:08;;;;;;;4.57;1.60;;;8.50;99.90;;;;;;5065946;28;20664;-60
2023/10/28 03:25:34;;;;;;;9.23;1.60;;;8.50;99.90;;;;;;5060617;28;20214;-59
2023/10/28 03:28:04;;;;;;;3.80;1.50;;;8.50;99.90;;;;;;5063061;28;20710;-59
2023/10/28 03:30:30;;;;;;;2.03;1.50;;;8.50;99.90;;;;;;5063746;28;20931;-60
2023/10/28 03:32:56;;;;;;;2.50;1.40;;;8.50;99.90;;;;;;5058953;28;20997;-59
2023/10/28 03:35:22;;;;;;;3.30;1.40;;;8.40;99.90;;;;;;5062333;28;20489;-60
2023/10/28 03:37:47;;;;;;;4.30;1.70;;;8.50;99.90;;;;;;5066186;28;21084;-58
2023/10/28 03:40:13;;;;;;;1.63;1.23;;;8.40;99.90;;;;;;5064760;28;20282;-59
2023/10/28 03:42:39;;;;;;;5.10;1.50;;;8.40;99.90;;;;;;5062648;28;20206;-60
2023/10/28 03:45:07;;;;;;;2.70;1.43;;;8.40;99.90;;;;;;5065203;28;21022;-59
2023/10/28 03:47:38;;;;;;;1.97;1.47;;;8.30;99.90;;;;;;5060183;28;20183;-59
2023/10/28 03:50:04;;;;;;;5.50;1.30;;;8.30;99.90;;;;;;5056151;28;20539;-59
2023/10/28 03:52:30;;;;;;;3.03;1.47;;;8.30;99.90;;;;;;5060640;28;20472;-61
2023/10/28 03:54:57;;;;;;;5.53;1.67;;;8.30;99.90;;;;;;5067755;28;20462;-59
2023/10/28 03:57:22;;;;;;;2.60;1.30;;;8.20;99.90;;;;;;5065055;28;20500;-59
2023/10/28 03:59:49;;;;;;;1.90;1.30;;;8.20;99.90;;;;;;5061221;28;20512;-58
2023/10/28 04:02:15;;;;;;;5.13;1.80;;;8.20;99.90;;;;;;5059580;28;20699;-59
2023/10/28 04:04:41;;;;;;;3.20;1.77;;;8.10;99.90;;;;;;5067158;28;20500;-59
2023/10/28 04:07:06;;;;;;;4.57;1.80;;;8.10;99.90;;;;;;5066925;28;20185;-59
2023/10/28 04:09:32;;;;;;;5.77;1.60;;;8.10;99.90;;;;;;5064345;28;20216;-59
2023/10/28 04:12:00;;;;;;;3.30;1.70;;;8.10;99.90;;;;;;5068540;28;20328;-59
2023/10/28 04:14:25;;;;;;;3.60;1.80;;;8.10;99.90;;;;;;5066512;28;20217;-59
2023/10/28 04:16:51;;;;;;;3.10;1.30;;;8.10;99.90;;;;;;5062835;28;20425;-59
2023/10/28 04:19:17;;;;;;;3.70;1.50;;;8.10;99.90;;;;;;5065635;28;20174;-58
2023/10/28 04:21:43;;;;;;;6.43;1.73;;;8.10;99.90;;;;;;5065629;28;20491;-59
2023/10/28 04:24:09;;;;;;;1.70;1.60;;;8.10;99.90;;;;;;5070025;28;20182;-59
2023/10/28 04:26:35;;;;;;;5.73;2.40;;;8.10;99.90;;;;;;5066975;28;20286;-59
2023/10/28 04:29:01;;;;;;;3.40;1.60;;;8.10;99.90;;;;;;5070113;28;20500;-59
2023/10/28 04:31:30;;;;;;;2.73;1.33;;;8.00;99.90;;;;;;5067572;28;20291;-60
2023/10/28 04:33:56;;;;;;;3.83;1.50;;;8.00;99.90;;;;;;5066825;28;20221;-59
2023/10/28 04:36:22;;;;;;;2.17;1.30;;;8.00;99.90;;;;;;5068150;28;20445;-60
2023/10/28 04:38:48;;;;;;;3.13;1.57;;;8.00;99.90;;;;;;5070062;28;20183;-60
2023/10/28 04:41:14;;;;;;;2.07;1.77;;;8.00;99.90;;;;;;5066582;28;20437;-59
2023/10/28 04:43:40;;;;;;;6.50;1.60;;;7.90;99.90;;;;;;5068210;28;20444;-59
2023/10/28 04:46:06;;;;;;;4.17;1.63;;;7.90;99.90;;;;;;5069473;28;20421;-60
2023/10/28 04:48:32;;;;;;;2.30;1.50;;;7.80;99.90;;;;;;5064608;28;20186;-58
2023/10/28 04:50:58;;;;;;;2.70;1.63;;;7.80;99.90;;;;;;5064330;28;20448;-58
2023/10/28 04:53:24;;;;;;;5.80;2.03;;;7.70;99.90;;;;;;5068781;28;20475;-59
2023/10/28 04:55:50;;;;;;;5.27;1.63;;;7.70;99.90;;;;;;5064863;28;20179;-59
2023/10/28 04:58:15;;;;;;;2.90;1.73;;;7.70;99.90;;;;;;5068878;28;20221;-59
2023/10/28 05:00:41;;;;;;;2.30;1.80;;;7.60;99.90;;;;;;5066978;28;20480;-59
2023/10/28 05:03:07;;;;;;;4.73;2.17;;;7.60;99.90;;;;;;5067503;28;20233;-59
2023/10/28 05:05:32;;;;;;;4.57;2.43;;;7.60;99.90;;;;;;5061749;28;20187;-58
2023/10/28 05:07:58;;;;;;;3.70;1.60;;;7.60;99.90;;;;;;5067406;28;20181;-57
2023/10/28 05:10:24;;;;;;;8.13;2.20;;;7.60;99.90;;;;;;5068257;28;20178;-59
2023/10/28 05:12:50;;;;;;;3.23;1.90;;;7.70;99.90;;;;;;5063646;28;20206;-60
2023/10/28 05:15:15;;;;;;;2.30;1.80;;;7.70;99.90;;;;;;5060752;28;20333;-58
2023/10/28 05:17:41;;;;;;;6.23;1.80;;;7.70;99.90;;;;;;5066739;28;20657;-58
2023/10/28 05:20:08;;;;;;;3.37;1.87;;;7.70;99.90;;;;;;5062970;28;20224;-60
2023/10/28 05:22:38;;;;;;;6.90;1.90;;;7.80;99.90;;;;;;5063230;28;20571;-58
2023/10/28 05:25:07;;;;;;;5.43;2.40;;;7.80;99.90;;;;;;5064216;28;20440;-60
2023/10/28 05:27:33;;;;;;;7.03;2.30;;;7.80;99.90;;;;;;5066821;28;20436;-59
2023/10/28 05:29:59;;;;;;;2.73;2.00;;;7.90;99.90;;;;;;5068147;28;20952;-57
2023/10/28 05:32:25;;;;;;;4.60;2.20;;;7.90;99.90;;;;;;5066060;28;20459;-59
2023/10/28 05:34:51;;;;;;;4.77;2.50;;;7.90;99.90;;;;;;5068540;28;20253;-59
2023/10/28 05:37:16;;;;;;;7.57;2.60;;;7.90;99.90;;;;;;5066852;28;20533;-59
2023/10/28 05:39:42;;;;;;;2.90;2.20;;;7.90;99.90;;;;;;5069152;28;20621;-59
2023/10/28 05:42:08;;;;;;;8.20;3.20;;;7.90;99.90;;;;;;5060287;28;20771;-61
2023/10/28 05:44:35;;;;;;;7.43;3.40;;;7.90;99.90;;;;;;5064340;28;20175;-59
2023/10/28 05:47:01;;;;;;;6.73;2.83;;;7.90;99.90;;;;;;5066599;28;20212;-58
2023/10/28 05:49:27;;;;;;;15.80;3.30;;;8.00;99.90;;;;;;5063208;28;21084;-58
2023/10/28 05:51:54;;;;;;;7.10;3.83;;;7.90;99.90;;;;;;5062167;28;20469;-61
2023/10/28 05:54:20;;;;;;;5.30;3.43;;;8.00;99.90;;;;;;5063067;28;20792;-59
2023/10/28 05:56:46;;;;;;;5.03;2.57;;;7.90;99.90;;;;;;5065634;28;20437;-59
2023/10/28 05:59:12;;;;;;;7.70;2.47;;;7.90;99.90;;;;;;5065334;28;20869;-60
2023/10/28 06:01:37;;;;;;;3.47;1.90;;;8.00;99.90;;;;;;5059591;28;20492;-60
2023/10/28 06:04:04;;;;;;;3.53;2.07;;;8.00;99.90;;;;;;5064814;28;20175;-60
2023/10/28 06:06:30;;;;;;;3.73;1.90;;;8.00;99.90;;;;;;5064343;28;20209;-59
2023/10/28 06:08:57;;;;;;;9.53;4.00;;;8.00;99.90;;;;;;5065023;28;20448;-60
2023/10/28 06:11:23;;;;;;;7.10;3.20;;;8.10;99.90;;;;;;5063346;28;20222;-59
2023/10/28 06:13:48;;;;;;;4.53;2.77;;;8.00;99.90;;;;;;5062759;28;20490;-59
2023/10/28 06:16:14;;;;;;;4.33;2.50;;;8.10;99.90;;;;;;5062533;28;20977;-59
2023/10/28 06:18:40;;;;;;;4.43;2.00;;;8.10;99.90;;;;;;5062284;28;20303;-59
2023/10/28 06:21:05;;;;;;;4.30;2.00;;;8.10;99.90;;;;;;5060130;28;20871;-59
2023/10/28 06:23:32;;;;;;;2.70;2.20;;;8.10;99.90;;;;;;5062445;28;20949;-59
2023/10/28 06:25:57;;;;;;;3.67;2.20;;;8.10;99.90;;;;;;5067415;28;20460;-59
2023/10/28 06:28:23;;;;;;;4.40;2.73;;;8.10;99.90;;;;;;5067312;28;20463;-59
2023/10/28 06:30:50;;;;;;;9.37;2.90;;;8.10;99.90;;;;;;5059875;28;20206;-59
2023/10/28 06:33:16;;;;;;;12.37;4.30;;;8.10;99.90;;;;;;5062065;28;20204;-59
2023/10/28 06:35:42;;;;;;;6.43;3.00;;;8.10;99.90;;;;;;5066107;28;20475;-59
2023/10/28 06:38:08;;;;;;;9.20;4.60;;;8.10;99.90;;;;;;5063941;28;20460;-59
2023/10/28 06:40:37;;;;;;;4.93;2.57;;;8.20;99.90;;;;;;5061350;28;20654;-59
2023/10/28 06:43:03;;;;;;;7.43;4.10;;;8.20;99.90;;;;;;5065848;28;20452;-59
2023/10/28 06:45:29;;;;;;;8.73;3.63;;;8.20;99.90;;;;;;5065209;28;20965;-59
2023/10/28 06:47:55;;;;;;;7.70;4.30;;;8.20;99.90;;;;;;5060529;28;20428;-59
2023/10/28 06:50:21;;;;;;;6.17;3.77;;;8.30;99.90;;;;;;5061005;28;20433;-59
2023/10/28 06:52:49;;;;;;;5.10;3.73;;;8.30;99.90;;;;;;5062640;28;20217;-59
2023/10/28 06:55:16;;;;;;;5.00;2.57;;;8.30;99.90;;;;;;5063331;28;20533;-60
2023/10/28 06:57:42;;;;;;;4.70;2.60;;;8.30;99.90;;;;;;5065927;28;20436;-60
2023/10/28 07:00:15;;;;;;;5.67;2.73;;;8.30;99.90;;;;;;5063495;28;20429;-59
2023/10/28 07:02:42;;;;;;;7.33;2.57;;;8.30;99.90;;;;;;5064870;28;20289;-58
2023/10/28 07:05:09;;;;;;;6.00;2.40;;;8.30;99.90;;;;;;5061798;28;20420;-59
2023/10/28 07:07:38;;;;;;;4.37;2.30;;;8.40;99.90;;;;;;5063317;28;20413;-60
2023/10/28 07:10:04;;;;;;;6.20;2.70;;;8.50;99.90;;;;;;5058826;28;20428;-59
2023/10/28 07:12:30;;;;;;;6.30;1.93;;;8.50;99.90;;;;;;5063495;28;20456;-59
2023/10/28 07:14:56;;;;;;;6.30;2.80;;;8.60;99.90;;;;;;5062404;28;20424;-59
2023/10/28 07:17:22;;;;;;;2.70;2.20;;;8.70;99.90;;;;;;5064920;28;20806;-59
2023/10/28 07:19:54;;;;;;;5.00;3.00;;;8.70;99.90;;;;;;5062765;28;20283;-59
2023/10/28 07:22:20;;;;;;;5.30;2.70;;;8.70;99.90;;;;;;5061765;28;20202;-60
2023/10/28 07:24:47;;;;;;;7.90;3.27;;;8.80;99.90;;;;;;5062777;28;20486;-59
2023/10/28 07:27:12;;;;;;;3.90;2.80;;;8.80;99.90;;;;;;5064684;28;20432;-60
2023/10/28 07:29:38;;;;;;;8.63;2.83;;;8.80;99.90;;;;;;5064731;28;20436;-60
2023/10/28 07:32:06;;;;;;;4.73;2.67;;;8.90;99.90;;;;;;5057586;28;20202;-60
2023/10/28 07:34:31;;;;;;;6.90;2.67;;;8.90;99.90;;;;;;5061861;28;20420;-59
2023/10/28 07:37:00;;;;;;;4.00;2.57;;;8.90;99.90;;;;;;5053472;28;20433;-59
2023/10/28 07:39:26;;;;;;;5.00;2.30;;;8.90;99.90;;;;;;5059391;28;20276;-59
2023/10/28 07:41:56;;;;;;;3.40;2.03;;;9.00;99.90;;;;;;5058656;28;20444;-59
2023/10/28 07:44:22;;;;;;;2.90;2.00;;;9.00;99.90;;;;;;5058340;28;20432;-59
2023/10/28 07:46:48;;;;;;;6.83;2.17;;;9.00;99.90;;;;;;5059523;28;20427;-59
2023/10/28 07:49:13;;;;;;;5.03;2.27;;;9.00;99.90;;;;;;5057662;28;20205;-59
2023/10/28 07:51:39;;;;;;;4.13;2.37;;;9.10;99.90;;;;;;5065747;28;20285;-60
2023/10/28 07:54:06;;;;;;;7.37;3.80;;;9.10;99.90;;;;;;5065452;28;20171;-59
2023/10/28 07:56:32;;;;;;;5.93;3.63;;;9.10;99.90;;;;;;5059843;28;20584;-59
2023/10/28 07:59:01;;;;;;;7.13;3.67;;;9.10;99.90;;;;;;5065136;28;20443;-59
2023/10/28 08:01:29;;;;;;;7.30;2.83;;;9.20;99.90;;;;;;5063267;28;20445;-59
2023/10/28 08:03:55;;;;;;;5.10;2.50;;;9.20;99.90;;;;;;5062322;28;20436;-59
2023/10/28 08:06:21;;;;;;;4.27;2.10;;;9.20;99.90;;;;;;5059664;28;20544;-59
2023/10/28 08:08:46;;;;;;;4.20;2.10;;;9.20;99.90;;;;;;5061388;28;21139;-58
2023/10/28 08:11:13;;;;;;;6.00;2.17;;;9.20;99.90;;;;;;5061885;28;20207;-59
2023/10/28 08:13:40;;;;;;;3.70;2.57;;;9.20;99.90;;;;;;5063682;28;20263;-59
2023/10/28 08:16:12;;;;;;;5.17;2.47;;;9.30;99.90;;;;;;5061483;28;20436;-59
2023/10/28 08:18:40;;;;;;;3.20;1.77;;;9.30;99.90;;;;;;5065066;28;20429;-60
2023/10/28 08:21:06;;;;;;;3.30;2.10;;;9.30;99.90;;;;;;5061235;28;20484;-59
2023/10/28 08:23:32;;;;;;;6.33;3.40;;;9.40;99.90;;;;;;5061819;28;20969;-60
2023/10/28 08:25:58;;;;;;;4.13;2.63;;;9.50;99.90;;;;;;5061049;28;20424;-59
2023/10/28 08:28:26;;;;;;;3.60;2.40;;;9.60;99.90;;;;;;5060782;28;20171;-59
2023/10/28 08:30:52;;;;;;;1.90;1.70;;;9.60;99.90;;;;;;5058894;28;20529;-59
2023/10/28 08:33:20;;;;;;;3.43;2.03;;;9.60;99.90;;;;;;5060671;28;20460;-60
2023/10/28 08:35:47;;;;;;;5.33;2.33;;;9.60;99.90;;;;;;5064583;28;20464;-59
2023/10/28 08:38:12;;;;;;;1.63;1.53;;;9.60;99.90;;;;;;5060893;28;20456;-59
2023/10/28 08:40:44;;;;;;;3.37;1.80;;;9.70;99.90;;;;;;5060271;28;20464;-59
2023/10/28 08:43:10;;;;;;;4.93;1.77;;;9.80;99.90;;;;;;5063725;28;20189;-59
2023/10/28 08:45:37;;;;;;;3.20;1.87;;;9.90;99.90;;;;;;5064192;28;20413;-60
2023/10/28 08:48:03;;;;;;;5.23;2.13;;;10.10;99.90;;;;;;5061641;28;20178;-58
2023/10/28 08:50:29;;;;;;;2.90;1.50;;;10.20;99.90;;;;;;5066245;28;20500;-59
2023/10/28 08:52:57;;;;;;;1.73;1.50;;;10.30;99.90;;;;;;5065636;28;20747;-61
2023/10/28 08:55:24;;;;;;;2.10;1.70;;;10.30;99.90;;;;;;5068944;28;20787;-59
2023/10/28 08:57:51;;;;;;;5.77;2.20;;;10.30;99.90;;;;;;5062097;28;20960;-59
2023/10/28 09:00:19;;;;;;;3.10;1.63;;;10.40;99.90;;;;;;5058724;28;20433;-57
2023/10/28 09:02:48;;;;;;;2.90;1.80;;;10.40;99.90;;;;;;5060141;28;20450;-60
2023/10/28 09:05:15;;;;;;;4.20;1.70;;;10.40;99.90;;;;;;5062839;28;20980;-59
2023/10/28 09:07:45;;;;;;;5.03;1.80;;;10.50;99.90;;;;;;5053594;28;20430;-56
2023/10/28 09:10:12;;;;;;;5.63;1.97;;;10.50;99.90;;;;;;5063607;28;20472;-59
2023/10/28 09:12:38;;;;;;;4.33;1.63;;;10.50;99.90;;;;;;5057766;28;20461;-59
2023/10/28 09:15:04;;;;;;;4.70;1.80;;;10.50;99.90;;;;;;5066886;28;20504;-59
2023/10/28 09:17:30;;;;;;;1.70;1.60;;;10.60;99.90;;;;;;5065997;28;20166;-63
2023/10/28 09:19:56;;;;;;;3.90;1.40;;;10.70;99.90;;;;;;5064400;28;20417;-63
2023/10/28 09:22:23;;;;;;;3.67;1.90;;;10.70;99.90;;;;;;5064833;28;20641;-64
2023/10/28 09:24:52;;;;;;;4.33;2.07;;;10.80;99.90;;;;;;5067936;28;20524;-63
2023/10/28 09:27:18;;;;;;;4.87;1.63;;;10.90;99.90;;;;;;5066970;28;20416;-62
2023/10/28 09:29:44;;;;;;;2.37;1.70;;;11.00;99.90;;;;;;5066379;28;20504;-64
2023/10/28 09:32:10;;;;;;;4.47;2.00;;;11.00;99.90;;;;;;5065267;28;20470;-63
2023/10/28 09:34:38;;;;;;;2.80;1.60;;;11.10;99.90;;;;;;5059316;28;20179;-64
2023/10/28 09:37:05;;;;;;;3.60;1.70;;;11.10;99.90;;;;;;5062391;28;20482;-62
2023/10/28 09:39:33;;;;;;;3.40;1.70;;;11.20;99.90;;;;;;5065291;28;20506;-66
2023/10/28 09:41:59;;;;;;;3.67;1.63;;;11.40;99.90;;;;;;5064583;28;20978;-64
2023/10/28 09:44:25;;;;;;;3.00;1.80;;;11.50;99.90;;;;;;5067634;28;20413;-64
2023/10/28 09:47:00;;;;;;;4.63;2.00;;;11.50;99.90;;;;;;5065585;28;20522;-63
2023/10/28 09:49:30;;;;;;;4.10;1.50;;;11.60;99.90;;;;;;5062768;28;20217;-62
2023/10/28 09:52:00;;;;;;;3.63;1.83;;;11.70;99.90;;;;;;5059408;28;20456;-62
2023/10/28 09:54:32;;;;;;;3.70;1.60;;;11.90;99.90;;;;;;5055891;28;20486;-62
2023/10/28 09:57:00;;;;;;;10.13;1.87;;;12.00;99.90;;;;;;5059347;28;20432;-62
2023/10/28 09:59:27;;;;;;;4.60;2.27;;;12.00;99.90;;;;;;5062977;28;20425;-62
2023/10/28 10:02:30;;;;;;;10.27;2.00;;;12.10;99.90;;;;;;5063379;28;20538;-61
2023/10/28 10:05:17;;;;;;;6.53;2.07;;;12.10;99.90;;;;;;5063419;28;20428;-61
2023/10/28 10:07:45;;;;;;;4.57;2.10;;;12.20;99.90;;;;;;5060622;28;21155;-61
2023/10/28 10:10:20;;;;;;;1.47;1.37;;;12.30;99.90;;;;;;5062119;28;20969;-61
2023/10/28 10:12:48;;;;;;;8.90;2.60;;;12.30;99.90;;;;;;5063656;28;21030;-61
2023/10/28 10:15:19;;;;;;;3.13;1.60;;;12.30;99.90;;;;;;5063082;28;21079;-62
2023/10/28 10:18:09;;;;;;;7.83;1.77;;;12.30;99.90;;;;;;5065316;28;20424;-61
2023/10/28 10:20:36;;;;;;;2.50;1.53;;;12.20;99.90;;;;;;5064676;28;20531;-60
2023/10/28 10:23:03;;;;;;;5.20;1.50;;;12.10;99.90;;;;;;5065547;28;20934;-60
2023/10/28 10:25:41;;;;;;;3.90;1.70;;;12.10;99.90;;;;;;5065709;28;20926;-61
2023/10/28 10:28:23;;;;;;;3.47;1.67;;;12.10;99.90;;;;;;5065519;28;20930;-62
2023/10/28 10:30:49;;;;;;;3.87;1.67;;;12.00;99.90;;;;;;5066625;28;20432;-60
2023/10/28 10:33:26;;;;;;;4.40;1.70;;;12.00;99.90;;;;;;5064594;28;20464;-61
2023/10/28 10:35:51;;;;;;;7.27;2.10;;;12.10;99.90;;;;;;5060174;28;20421;-61
2023/10/28 10:38:29;;;;;;;3.93;1.90;;;12.20;99.90;;;;;;5064822;28;20428;-61
2023/10/28 10:40:59;;;;;;;7.23;1.70;;;12.30;99.90;;;;;;5059926;28;20197;-62
2023/10/28 10:43:30;;;;;;;5.23;1.77;;;12.40;99.90;;;;;;5066560;28;20884;-62
2023/10/28 10:45:57;;;;;;;3.17;1.80;;;12.50;99.90;;;;;;5061228;28;20424;-62
2023/10/28 10:48:25;;;;;;;3.23;1.60;;;12.40;99.90;;;;;;5066473;28;20397;-62
2023/10/28 10:50:51;;;;;;;4.30;1.90;;;12.40;99.90;;;;;;5064560;28;20476;-62
2023/10/28 10:53:17;;;;;;;6.33;2.27;;;12.40;99.90;;;;;;5061766;28;20476;-60
2023/10/28 10:55:42;;;;;;;4.10;2.47;;;12.40;99.90;;;;;;5068264;28;20408;-62
2023/10/28 10:58:08;;;;;;;3.53;1.87;;;12.40;99.90;;;;;;5063150;28;20174;-62
2023/10/28 11:00:34;;;;;;;9.30;2.23;;;12.40;99.90;;;;;;5061277;28;20708;-62
2023/10/28 11:03:03;;;;;;;6.37;1.80;;;12.50;99.90;;;;;;5057999;28;20420;-62
2023/10/28 11:05:30;;;;;;;6.10;1.60;;;12.60;99.90;;;;;;5061184;28;20440;-62
2023/10/28 11:07:56;;;;;;;7.90;2.10;;;12.60;99.90;;;;;;5060420;28;20962;-61
2023/10/28 11:10:23;;;;;;;6.90;1.90;;;12.60;99.90;;;;;;5063947;28;20428;-61
2023/10/28 11:12:49;;;;;;;3.80;1.43;;;12.60;99.90;;;;;;5061702;28;20808;-61
2023/10/28 11:15:15;;;;;;;6.83;1.50;;;12.80;99.90;;;;;;5059719;28;20413;-62
2023/10/28 11:17:41;;;;;;;2.60;1.63;;;13.10;99.90;;;;;;5067138;28;20409;-61
2023/10/28 11:20:10;;;;;;;4.77;1.53;;;13.30;98.70;;;;;;5058587;28;20431;-62
2023/10/28 11:22:37;;;;;;;5.53;1.80;;;13.50;99.90;;;;;;5066029;28;20513;-62
2023/10/28 11:25:06;;;;;;;3.67;1.50;;;13.80;96.90;;;;;;5064918;28;20452;-61
2023/10/28 11:27:31;;;;;;;3.57;1.60;;;14.20;93.20;;;;;;5066897;28;20412;-61
2023/10/28 11:29:58;;;;;;;5.43;1.57;;;14.50;78.50;;;;;;5062668;28;20546;-62
2023/10/28 11:32:26;;;;;;;2.80;1.60;;;14.80;82.10;;;;;;5066700;28;20863;-62
2023/10/28 11:34:53;;;;;;;2.90;1.60;;;14.90;71.30;;;;;;5061221;28;20425;-62
2023/10/28 11:37:19;;;;;;;3.10;1.90;;;15.00;71.40;;;;;;5064483;28;20939;-62
2023/10/28 11:39:45;;;;;;;4.10;2.33;;;15.00;69.70;;;;;;5058216;28;20439;-61
2023/10/28 11:42:12;;;;;;;3.50;1.93;;;14.90;69.90;;;;;;5064762;28;20433;-61
2023/10/28 11:44:47;;;;;;;3.93;1.60;;;14.70;69.00;;;;;;5063658;28;20694;-62
2023/10/28 11:47:12;;;;;;;3.67;1.70;;;14.40;66.10;;;;;;5060479;28;20397;-62
2023/10/28 11:49:38;;;;;;;4.60;1.60;;;14.10;68.50;;;;;;5058003;28;20973;-61
2023/10/28 11:52:04;;;;;;;4.50;1.87;;;14.00;70.30;;;;;;5065346;28;20281;-60
2023/10/28 11:54:30;;;;;;;4.93;1.53;;;13.90;74.10;;;;;;5063129;28;20167;-61
2023/10/28 11:56:56;;;;;;;4.70;1.40;;;13.90;78.00;;;;;;5062899;28;20923;-61
2023/10/28 11:59:22;;;;;;;5.00;1.63;;;13.90;76.30;;;;;;5066593;28;20170;-61
2023/10/28 12:01:48;;;;;;;4.83;1.80;;;13.90;77.30;;;;;;5066514;28;20502;-61
2023/10/28 12:04:15;;;;;;;4.30;1.80;;;14.20;71.70;;;;;;5059595;28;20934;-62
2023/10/28 12:06:42;;;;;;;4.33;1.70;;;14.70;66.40;;;;;;5065118;28;20185;-62
2023/10/28 12:09:11;;;;;;;2.03;1.37;;;14.90;63.10;;;;;;5064808;28;20421;-62
2023/10/28 12:11:38;;;;;;;4.80;1.70;;;15.20;61.20;;;;;;5057308;28;20446;-62
2023/10/28 12:14:05;;;;;;;5.40;1.60;;;16.00;61.00;;;;;;5061646;28;20790;-62
2023/10/28 12:16:35;;;;;;;3.70;1.53;;;16.40;57.50;;;;;;5063056;28;20406;-62
2023/10/28 12:19:01;;;;;;;2.70;1.73;;;16.40;58.10;;;;;;5061216;28;20438;-61
2023/10/28 12:21:27;;;;;;;2.77;1.30;;;16.20;57.00;;;;;;5055365;28;20480;-62
2023/10/28 12:23:53;;;;;;;5.03;1.47;;;15.90;56.00;;;;;;5062105;28;20408;-62
2023/10/28 12:26:19;;;;;;;2.03;1.20;;;15.60;56.70;;;;;;5064363;28;20497;-62
2023/10/28 12:28:47;;;;;;;10.43;1.93;;;15.30;57.00;;;;;;5068112;28;20531;-61
2023/10/28 12:31:12;;;;;;;4.60;1.40;;;15.00;57.80;;;;;;5069339;28;20680;-62
2023/10/28 12:33:38;;;;;;;6.77;1.83;;;14.70;57.30;;;;;;5065650;28;20453;-62
2023/10/28 12:36:04;;;;;;;6.67;1.50;;;14.60;58.60;;;;;;5065441;28;20170;-61
2023/10/28 12:38:29;;;;;;;3.33;1.40;;;14.40;59.60;;;;;;5066540;28;20179;-62
2023/10/28 12:40:55;;;;;;;6.30;1.80;;;14.30;59.80;;;;;;5070066;28;20831;-62
2023/10/28 12:43:20;;;;;;;5.33;1.97;;;14.30;60.70;;;;;;5058938;28;20209;-62
2023/10/28 12:45:46;;;;;;;5.80;2.00;;;14.30;62.00;;;;;;5061467;28;20838;-57
2023/10/28 12:48:12;;;;;;;3.10;1.63;;;14.30;63.40;;;;;;5063114;28;20178;-57
2023/10/28 12:50:37;;;;;;;11.67;1.83;;;14.30;64.80;;;;;;5064833;28;20194;-63